Navig8 Saiph — V7SU2 — position and weather

sailwx.info

Track history (hours):
 
Tides and Currents Weather Stations Pressure Air Temp Water Temp Dewpoint Dewpoint Depression Visibility Wind Speed Wind Dir Waves Ship Positions

Navig8 Saiph

Last reported at 2018-Jun-20 02:46 UTC. Time now 2018-Jun-20 17:27 UTC.
Position N 37°22' W 023°07'.

Length 153 m; draft 10.4 m.

Type: Ship (hazmat cat B). MMSI: 538006894.

Date/timePositionNaut miles runAvg speedWind from/ knotsBaromVisibWave heightAir tempDewpointWater temp
2018-Jun-20 02:46N 37°22' W 023°07'1412.8
2018-Jun-20 01:39N 37°24' W 023°25'212.8
2018-Jun-20 01:30N 37°24' W 023°27'612.3
2018-Jun-20 00:59N 37°24' W 023°35'612.5
2018-Jun-20 00:28N 37°24' W 023°43'612.4
2018-Jun-20 00:00N 37°25' W 023°50'612.5
2018-Jun-19 23:30N 37°25' W 023°58'612.8
2018-Jun-19 23:00N 37°26' W 024°06'612.7
2018-Jun-19 22:30N 37°26' W 024°14'612.8
2018-Jun-19 22:00N 37°27' W 024°22'612.7
2018-Jun-19 21:30N 37°27' W 024°30'713.0
2018-Jun-19 21:00N 37°28' W 024°38'713.4
2018-Jun-19 20:30N 37°29' W 024°47'612.9
2018-Jun-19 20:00N 37°28' W 024°55'612.4
2018-Jun-19 19:30N 37°27' W 025°03'612.8
2018-Jun-19 19:00N 37°26' W 025°11'612.8
2018-Jun-19 18:30N 37°26' W 025°19'612.6
2018-Jun-19 18:00N 37°26' W 025°27'613.0
2018-Jun-19 17:30N 37°25' W 025°35'612.6
2018-Jun-19 17:00N 37°25' W 025°43'612.4
2018-Jun-19 16:30N 37°24' W 025°50'613.0
2018-Jun-19 16:00N 37°23' W 025°58'713.0
2018-Jun-19 15:30N 37°23' W 026°07'612.8
2018-Jun-19 15:00N 37°22' W 026°15'713.2
2018-Jun-19 14:30N 37°22' W 026°23'713.5
2018-Jun-19 14:00N 37°21' W 026°31'713.7
2018-Jun-19 13:30N 37°21' W 026°40'714.2
2018-Jun-19 13:00N 37°20' W 026°49'713.7
2018-Jun-19 12:30N 37°19' W 026°58'612.7
2018-Jun-19 12:00N 37°18' W 027°05'612.7
2018-Jun-19 11:30N 37°18' W 027°13'612.9
2018-Jun-19 11:00N 37°18' W 027°21'812.9
2018-Jun-19 10:22N 37°17' W 027°32'513.2
2018-Jun-19 09:59N 37°16' W 027°38'713.0
2018-Jun-19 09:29N 37°15' W 027°46'613.2
2018-Jun-19 09:00N 37°15' W 027°54'713.1
2018-Jun-19 08:30N 37°15' W 028°02'713.3
2018-Jun-19 08:00N 37°14' W 028°11'713.2
2018-Jun-19 07:27N 37°13' W 028°20'612.8
2018-Jun-19 07:00N 37°12' W 028°27'612.8
2018-Jun-19 06:30N 37°11' W 028°35'613.1
2018-Jun-19 06:00N 37°11' W 028°43'713.2
2018-Jun-19 05:30N 37°11' W 028°51'612.8
2018-Jun-19 05:00N 37°10' W 028°59'612.6
2018-Jun-19 04:30N 37°10' W 029°07'712.6
2018-Jun-19 03:59N 37°09' W 029°15'812.7
2018-Jun-19 03:23N 37°09' W 029°25'512.7
2018-Jun-19 03:00N 37°08' W 029°31'712.3
2018-Jun-19 02:28N 37°08' W 029°39'612.2
2018-Jun-19 02:00N 37°07' W 029°46'1212.6
2018-Jun-19 01:02N 37°05' W 030°02'112.4
2018-Jun-19 00:56N 37°05' W 030°03'1412.9
2018-Jun-18 23:50N 37°04' W 030°21'513.0
2018-Jun-18 23:28N 37°04' W 030°27'1612.9
2018-Jun-18 22:13N 37°03' W 030°47'313.0
2018-Jun-18 22:00N 37°02' W 030°50'1213.3
2018-Jun-18 21:09N 37°01' W 031°05'2213.3
2018-Jun-18 19:29N 36°59' W 031°32'913.2
2018-Jun-18 18:48N 36°58' W 031°43'413.2
2018-Jun-18 18:30N 36°58' W 031°48'1013.2
2018-Jun-18 17:44N 36°57' W 032°01'4113.1
2018-Jun-18 14:38N 36°54' W 032°51'212.3
2018-Jun-18 14:29N 36°53' W 032°54'  
2018-Jun-10 18:42N 26°14' W 079°23'315.2
2018-Jun-10 18:30N 26°11' W 079°24'815.3
2018-Jun-10 18:00N 26°04' W 079°26'815.7
2018-Jun-10 17:30N 25°56' W 079°29'815.9
2018-Jun-10 17:00N 25°48' W 079°31'816.2
2018-Jun-10 16:30N 25°41' W 079°34'816.1
2018-Jun-10 16:00N 25°33' W 079°34'  
Track history (hours):
 
Tides and Currents Weather Stations Pressure Air Temp Water Temp Dewpoint Dewpoint Depression Visibility Wind Speed Wind Dir Waves Ship Positions

Navig8 Saiph

Last reported at 2018-Jun-20 02:46 UTC. Time now 2018-Jun-20 17:27 UTC.
Position N 37°22' W 023°07'.

Length 153 m; draft 10.4 m.

Type: Ship (hazmat cat B). MMSI: 538006894.

Date/timePositionNaut miles runAvg speedWind from/ knotsBaromVisibWave heightAir tempDewpointWater temp
2018-Jun-20 02:46N 37°22' W 023°07'1412.8
2018-Jun-20 01:39N 37°24' W 023°25'212.8
2018-Jun-20 01:30N 37°24' W 023°27'612.3
2018-Jun-20 00:59N 37°24' W 023°35'612.5
2018-Jun-20 00:28N 37°24' W 023°43'612.4
2018-Jun-20 00:00N 37°25' W 023°50'612.5
2018-Jun-19 23:30N 37°25' W 023°58'612.8
2018-Jun-19 23:00N 37°26' W 024°06'612.7
2018-Jun-19 22:30N 37°26' W 024°14'612.8
2018-Jun-19 22:00N 37°27' W 024°22'612.7
2018-Jun-19 21:30N 37°27' W 024°30'713.0
2018-Jun-19 21:00N 37°28' W 024°38'713.4
2018-Jun-19 20:30N 37°29' W 024°47'612.9
2018-Jun-19 20:00N 37°28' W 024°55'612.4
2018-Jun-19 19:30N 37°27' W 025°03'612.8
2018-Jun-19 19:00N 37°26' W 025°11'612.8
2018-Jun-19 18:30N 37°26' W 025°19'612.6
2018-Jun-19 18:00N 37°26' W 025°27'613.0
2018-Jun-19 17:30N 37°25' W 025°35'612.6
2018-Jun-19 17:00N 37°25' W 025°43'612.4
2018-Jun-19 16:30N 37°24' W 025°50'613.0
2018-Jun-19 16:00N 37°23' W 025°58'713.0
2018-Jun-19 15:30N 37°23' W 026°07'612.8
2018-Jun-19 15:00N 37°22' W 026°15'713.2
2018-Jun-19 14:30N 37°22' W 026°23'713.5
2018-Jun-19 14:00N 37°21' W 026°31'713.7
2018-Jun-19 13:30N 37°21' W 026°40'714.2
2018-Jun-19 13:00N 37°20' W 026°49'713.7
2018-Jun-19 12:30N 37°19' W 026°58'612.7
2018-Jun-19 12:00N 37°18' W 027°05'612.7
2018-Jun-19 11:30N 37°18' W 027°13'612.9
2018-Jun-19 11:00N 37°18' W 027°21'812.9
2018-Jun-19 10:22N 37°17' W 027°32'513.2
2018-Jun-19 09:59N 37°16' W 027°38'713.0
2018-Jun-19 09:29N 37°15' W 027°46'613.2
2018-Jun-19 09:00N 37°15' W 027°54'713.1
2018-Jun-19 08:30N 37°15' W 028°02'713.3
2018-Jun-19 08:00N 37°14' W 028°11'713.2
2018-Jun-19 07:27N 37°13' W 028°20'612.8
2018-Jun-19 07:00N 37°12' W 028°27'612.8
2018-Jun-19 06:30N 37°11' W 028°35'613.1
2018-Jun-19 06:00N 37°11' W 028°43'713.2
2018-Jun-19 05:30N 37°11' W 028°51'612.8
2018-Jun-19 05:00N 37°10' W 028°59'612.6
2018-Jun-19 04:30N 37°10' W 029°07'712.6
2018-Jun-19 03:59N 37°09' W 029°15'812.7
2018-Jun-19 03:23N 37°09' W 029°25'512.7
2018-Jun-19 03:00N 37°08' W 029°31'712.3
2018-Jun-19 02:28N 37°08' W 029°39'612.2
2018-Jun-19 02:00N 37°07' W 029°46'1212.6
2018-Jun-19 01:02N 37°05' W 030°02'112.4
2018-Jun-19 00:56N 37°05' W 030°03'1412.9
2018-Jun-18 23:50N 37°04' W 030°21'513.0
2018-Jun-18 23:28N 37°04' W 030°27'1612.9
2018-Jun-18 22:13N 37°03' W 030°47'313.0
2018-Jun-18 22:00N 37°02' W 030°50'1213.3
2018-Jun-18 21:09N 37°01' W 031°05'2213.3
2018-Jun-18 19:29N 36°59' W 031°32'913.2
2018-Jun-18 18:48N 36°58' W 031°43'413.2
2018-Jun-18 18:30N 36°58' W 031°48'1013.2
2018-Jun-18 17:44N 36°57' W 032°01'4113.1
2018-Jun-18 14:38N 36°54' W 032°51'212.3
2018-Jun-18 14:29N 36°53' W 032°54'  
2018-Jun-10 18:42N 26°14' W 079°23'315.2
2018-Jun-10 18:30N 26°11' W 079°24'815.3
2018-Jun-10 18:00N 26°04' W 079°26'815.7
2018-Jun-10 17:30N 25°56' W 079°29'815.9
2018-Jun-10 17:00N 25°48' W 079°31'816.2
2018-Jun-10 16:30N 25°41' W 079°34'816.1
2018-Jun-10 16:00N 25°33' W 079°34'  

Dump ship's entire track history